Time;durP1;ratioP1;P1;durP2;ratioP2;P2;SDS_P1;SDS_P2;PMS_P1;PMS_P2;Temp;Humidity;BMP_temperature;BMP_pressure;BME280_temperature;BME280_humidity;BME280_pressure;Samples;Min_cycle;Max_cycle;Signal;HPM_P1;HPM_P2
2023/10/27 00:01:34;;;;;;;;;;;;;;;20.95;62.00;95975.72;609882;232;64652;-69
2023/10/27 00:04:01;;;;;;;;;;;;;;;20.95;61.53;95971.19;610941;232;68662;-69
2023/10/27 00:06:32;;;;;;;;;;;;;;;20.94;61.79;95963.47;610939;232;68499;-69
2023/10/27 00:08:58;;;;;;;;;;;;;;;20.95;62.23;95960.51;610849;232;64634;-67
2023/10/27 00:11:26;;;;;;;;;;;;;;;20.95;62.15;95955.17;610972;232;66399;-66
2023/10/27 00:13:53;;;;;;;;;;;;;;;20.94;61.63;95958.12;610958;232;68687;-66
2023/10/27 00:16:21;;;;;;;;;;;;;;;20.93;61.82;95949.33;610947;232;63350;-69
2023/10/27 00:18:48;;;;;;;;;;;;;;;20.94;62.62;95948.22;610925;232;68614;-69
2023/10/27 00:21:16;;;;;;;;;;;;;;;20.93;62.00;95946.66;610899;232;68900;-69
2023/10/27 00:23:43;;;;;;;;;;;;;;;20.94;62.52;95953.56;610947;232;64765;-69
2023/10/27 00:26:11;;;;;;;;;;;;;;;20.93;62.48;95954.66;611005;232;68712;-69
2023/10/27 00:28:39;;;;;;;;;;;;;;;20.94;63.03;95952.78;605951;232;65764;-69
2023/10/27 00:31:07;;;;;;;;;;;;;;;20.92;62.26;95947.72;610957;232;62340;-69
2023/10/27 00:33:34;;;;;;;;;;;;;;;20.92;62.50;95947.72;610928;232;67385;-69
2023/10/27 00:36:02;;;;;;;;;;;;;;;20.92;61.72;95955.73;610950;232;68498;-69
2023/10/27 00:38:30;;;;;;;;;;;;;;;20.92;61.42;95953.06;611001;232;62490;-69
2023/10/27 00:40:57;;;;;;;;;;;;;;;20.93;61.94;95951.20;610931;232;69276;-69
2023/10/27 00:43:25;;;;;;;;;;;;;;;20.93;62.46;95951.99;610926;232;68988;-69
2023/10/27 00:45:54;;;;;;;;;;;;;;;20.93;62.49;95954.66;610940;232;65137;-69
2023/10/27 00:48:22;;;;;;;;;;;;;;;20.93;62.37;95953.87;610892;232;68926;-69
2023/10/27 00:50:49;;;;;;;;;;;;;;;20.93;61.66;95953.87;610982;232;68717;-69
2023/10/27 00:53:18;;;;;;;;;;;;;;;20.92;62.28;95955.73;610931;232;65678;-69
2023/10/27 00:55:47;;;;;;;;;;;;;;;20.92;62.67;95957.62;610945;232;68910;-69
2023/10/27 00:58:15;;;;;;;;;;;;;;;20.92;62.87;95953.06;610968;232;66674;-69
2023/10/27 01:00:43;;;;;;;;;;;;;;;20.91;62.81;95943.48;610945;232;64887;-69
2023/10/27 01:03:10;;;;;;;;;;;;;;;20.92;62.08;95941.59;610982;232;68462;-69
2023/10/27 01:05:38;;;;;;;;;;;;;;;20.92;60.83;95944.27;610981;232;68659;-69
2023/10/27 01:08:05;;;;;;;;;;;;;;;20.93;61.37;95935.19;610940;232;63548;-69
2023/10/27 01:10:33;;;;;;;;;;;;;;;20.92;62.17;95945.05;610953;232;66564;-69
2023/10/27 01:13:01;;;;;;;;;;;;;;;20.92;62.04;95931.70;610982;232;66337;-69
2023/10/27 01:15:30;;;;;;;;;;;;;;;20.92;62.00;95937.04;610983;232;64912;-69
2023/10/27 01:17:57;;;;;;;;;;;;;;;20.92;62.78;95944.27;610928;232;66398;-69
2023/10/27 01:20:25;;;;;;;;;;;;;;;20.92;62.62;95947.72;610985;232;68893;-69
2023/10/27 01:22:53;;;;;;;;;;;;;;;20.91;61.86;95948.82;611016;232;62364;-69
2023/10/27 01:25:21;;;;;;;;;;;;;;;20.91;61.67;95948.82;610997;232;69492;-70
2023/10/27 01:27:48;;;;;;;;;;;;;;;20.91;61.91;95948.82;611040;232;66517;-67
2023/10/27 01:30:16;;;;;;;;;;;;;;;20.91;61.46;95951.48;611007;232;64703;-67
2023/10/27 01:32:45;;;;;;;;;;;;;;;20.92;61.05;95944.27;610957;232;68547;-67
2023/10/27 01:35:13;;;;;;;;;;;;;;;20.91;61.96;95940.81;610975;232;69215;-66
2023/10/27 01:37:40;;;;;;;;;;;;;;;20.92;62.07;95934.37;610983;232;64884;-67
2023/10/27 01:40:09;;;;;;;;;;;;;;;20.91;61.00;95934.68;610993;232;69133;-67
2023/10/27 01:42:36;;;;;;;;;;;;;;;20.91;61.72;95943.48;611008;232;68524;-67
2023/10/27 01:45:06;;;;;;;;;;;;;;;20.91;61.24;95940.02;611010;232;65568;-70
2023/10/27 01:47:33;;;;;;;;;;;;;;;20.92;61.82;95928.23;610945;232;68509;-67
2023/10/27 01:50:01;;;;;;;;;;;;;;;20.90;60.71;95931.22;610974;232;65941;-67
2023/10/27 01:52:28;;;;;;;;;;;;;;;20.91;61.55;95927.45;610963;232;63197;-66
2023/10/27 01:54:57;;;;;;;;;;;;;;;20.91;61.56;95922.11;610981;232;66493;-67
2023/10/27 01:57:25;;;;;;;;;;;;;;;20.90;61.47;95925.88;610918;232;68959;-69
2023/10/27 01:59:53;;;;;;;;;;;;;;;20.91;61.77;95929.34;610964;230;62734;-69
2023/10/27 02:02:21;;;;;;;;;;;;;;;20.91;62.00;95926.67;610927;232;68794;-69
2023/10/27 02:04:49;;;;;;;;;;;;;;;20.90;61.48;95925.88;610938;232;66154;-69
2023/10/27 02:07:16;;;;;;;;;;;;;;;20.91;61.37;95926.67;610983;232;64681;-69
2023/10/27 02:09:44;;;;;;;;;;;;;;;20.91;61.72;95930.13;610931;232;68748;-69
2023/10/27 02:12:12;;;;;;;;;;;;;;;20.90;61.33;95920.55;610970;232;66362;-69
2023/10/27 02:14:39;;;;;;;;;;;;;;;20.90;61.88;95928.55;610967;232;62695;-69
2023/10/27 02:17:07;;;;;;;;;;;;;;;20.90;61.36;95931.22;610964;232;68746;-69
2023/10/27 02:19:34;;;;;;;;;;;;;;;20.90;62.22;95938.42;611012;232;68545;-69
2023/10/27 02:22:02;;;;;;;;;;;;;;;20.90;61.94;95931.22;610915;232;65742;-69
2023/10/27 02:24:30;;;;;;;;;;;;;;;20.90;61.92;95939.23;610942;232;68718;-69
2023/10/27 02:26:58;;;;;;;;;;;;;;;20.90;61.84;95933.89;610968;232;66334;-69
2023/10/27 02:29:26;;;;;;;;;;;;;;;20.90;61.57;95927.73;610967;232;64610;-69
2023/10/27 02:31:56;;;;;;;;;;;;;;;20.89;61.49;95940.30;610962;232;68655;-69
2023/10/27 02:34:24;;;;;;;;;;;;;;;20.90;61.68;95941.91;610988;232;66198;-69
2023/10/27 02:36:52;;;;;;;;;;;;;;;20.90;61.78;95930.41;610931;232;62455;-69
2023/10/27 02:39:20;;;;;;;;;;;;;;;20.90;61.95;95930.41;610977;232;69648;-67
2023/10/27 02:41:47;;;;;;;;;;;;;;;20.89;61.55;95926.95;610950;232;68534;-67
2023/10/27 02:44:15;;;;;;;;;;;;;;;20.89;61.84;95932.30;610982;232;62558;-67
2023/10/27 02:46:43;;;;;;;;;;;;;;;20.89;61.67;95924.28;610959;232;68957;-67
2023/10/27 02:49:10;;;;;;;;;;;;;;;20.89;61.57;95929.63;610957;232;68661;-67
2023/10/27 02:51:38;;;;;;;;;;;;;;;20.89;61.64;95926.16;610952;232;62598;-67
2023/10/27 02:54:06;;;;;;;;;;;;;;;20.89;61.87;95924.28;610969;232;67430;-67
2023/10/27 02:56:33;;;;;;;;;;;;;;;20.88;62.02;95922.71;610938;232;67183;-67
2023/10/27 02:59:01;;;;;;;;;;;;;;;20.88;61.84;95928.05;611010;232;64883;-67
2023/10/27 03:01:28;;;;;;;;;;;;;;;20.89;62.03;95926.16;610069;232;67588;-67
2023/10/27 03:03:56;;;;;;;;;;;;;;;20.89;61.84;95924.28;609013;233;65814;-70
2023/10/27 03:06:23;;;;;;;;;;;;;;;20.87;62.08;95931.82;609042;233;64900;-67
2023/10/27 03:08:51;;;;;;;;;;;;;;;20.89;61.90;95934.17;609007;233;66326;-69
2023/10/27 03:11:18;;;;;;;;;;;;;;;20.88;62.04;95925.38;609049;233;67495;-69
2023/10/27 03:13:46;;;;;;;;;;;;;;;20.88;62.59;95922.71;609015;233;62360;-69
2023/10/27 03:16:16;;;;;;;;;;;;;;;20.88;62.51;95922.71;608972;233;68941;-69
2023/10/27 03:18:43;;;;;;;;;;;;;;;20.88;62.49;95916.58;609007;233;68670;-69
2023/10/27 03:21:11;;;;;;;;;;;;;;;20.87;62.23;95915.80;609014;233;62370;-70
2023/10/27 03:23:38;;;;;;;;;;;;;;;20.87;61.79;95915.80;609059;233;66436;-67
2023/10/27 03:26:05;;;;;;;;;;;;;;;20.87;61.75;95921.14;609080;233;66460;-67
2023/10/27 03:28:33;;;;;;;;;;;;;;;20.88;61.26;95916.58;609034;233;62483;-67
2023/10/27 03:31:01;;;;;;;;;;;;;;;20.88;61.42;95921.92;608999;233;68627;-67
2023/10/27 03:33:28;;;;;;;;;;;;;;;20.87;61.71;95909.64;609016;233;66350;-69
2023/10/27 03:35:56;;;;;;;;;;;;;;;20.88;62.08;95919.25;608977;233;62480;-69
2023/10/27 03:38:23;;;;;;;;;;;;;;;20.87;62.84;95913.13;609069;233;69033;-69
2023/10/27 03:40:53;;;;;;;;;;;;;;;20.87;62.90;95912.31;609021;233;68590;-69
2023/10/27 03:43:21;;;;;;;;;;;;;;;20.87;62.81;95909.64;608979;233;62376;-69
2023/10/27 03:45:49;;;;;;;;;;;;;;;20.87;62.10;95906.97;609033;233;68756;-69
2023/10/27 03:48:17;;;;;;;;;;;;;;;20.86;62.35;95906.19;609011;233;67349;-69
2023/10/27 03:50:45;;;;;;;;;;;;;;;20.86;62.25;95908.86;609051;233;62447;-69
2023/10/27 03:53:12;;;;;;;;;;;;;;;20.87;61.97;95905.12;609047;233;68804;-67
2023/10/27 03:55:40;;;;;;;;;;;;;;;20.86;62.83;95900.84;609001;233;68747;-67
2023/10/27 03:58:15;;;;;;;;;;;;;;;20.86;62.14;95898.17;608973;233;62409;-69
2023/10/27 04:00:43;;;;;;;;;;;;;;;20.86;62.67;95897.39;608674;233;68917;-69
2023/10/27 04:03:10;;;;;;;;;;;;;;;20.86;62.92;95889.38;609076;233;68589;-69
2023/10/27 04:05:38;;;;;;;;;;;;;;;20.85;62.97;95888.59;608966;233;65502;-69
2023/10/27 04:08:06;;;;;;;;;;;;;;;20.85;62.89;95880.58;609031;233;66620;-69
2023/10/27 04:10:35;;;;;;;;;;;;;;;20.84;62.50;95881.65;608980;233;66506;-69
2023/10/27 04:13:04;;;;;;;;;;;;;;;20.85;62.22;95880.58;608733;233;64460;-69
2023/10/27 04:15:31;;;;;;;;;;;;;;;20.84;62.46;95879.80;609004;233;68631;-69
2023/10/27 04:18:00;;;;;;;;;;;;;;;20.84;62.67;95869.11;609063;233;66483;-69
2023/10/27 04:20:27;;;;;;;;;;;;;;;20.84;63.06;95870.97;609033;233;64720;-67
2023/10/27 04:22:55;;;;;;;;;;;;;;;20.84;62.99;95858.43;609021;233;68774;-67
2023/10/27 04:25:23;;;;;;;;;;;;;;;20.84;63.39;95860.28;608956;233;68976;-66
2023/10/27 04:27:50;;;;;;;;;;;;;;;20.83;63.16;95850.70;609036;233;64725;-67
2023/10/27 04:30:18;;;;;;;;;;;;;;;20.83;63.16;95851.49;609098;233;68650;-67
2023/10/27 04:32:46;;;;;;;;;;;;;;;20.84;63.04;95852.27;609038;233;66244;-67
2023/10/27 04:35:13;;;;;;;;;;;;;;;20.83;62.86;95842.70;609056;233;62788;-67
2023/10/27 04:37:41;;;;;;;;;;;;;;;20.83;62.46;95845.36;608984;233;68670;-67
2023/10/27 04:40:09;;;;;;;;;;;;;;;20.83;62.50;95840.02;608911;233;66710;-67
2023/10/27 04:42:37;;;;;;;;;;;;;;;20.83;62.80;95835.47;609098;233;64692;-67
2023/10/27 04:45:04;;;;;;;;;;;;;;;20.83;62.64;95837.35;609042;233;65828;-67
2023/10/27 04:47:32;;;;;;;;;;;;;;;20.83;62.38;95829.34;609040;233;69145;-67
2023/10/27 04:50:00;;;;;;;;;;;;;;;20.83;62.72;95840.81;609000;233;62576;-67
2023/10/27 04:52:28;;;;;;;;;;;;;;;20.83;62.53;95840.02;609036;233;68990;-67
2023/10/27 04:54:57;;;;;;;;;;;;;;;20.83;62.75;95853.38;609095;230;68908;-67
2023/10/27 04:57:24;;;;;;;;;;;;;;;20.83;63.21;95846.15;609030;233;64679;-67
2023/10/27 04:59:52;;;;;;;;;;;;;;;20.82;62.69;95844.58;609035;233;68629;-67
2023/10/27 05:02:19;;;;;;;;;;;;;;;20.83;62.39;95853.38;608989;233;68776;-67
2023/10/27 05:04:47;;;;;;;;;;;;;;;20.82;62.46;95849.92;609019;233;64732;-67
2023/10/27 05:07:14;;;;;;;;;;;;;;;20.83;62.81;95856.83;609114;233;68777;-67
2023/10/27 05:09:42;;;;;;;;;;;;;;;20.82;62.46;95857.14;609038;233;66634;-67
2023/10/27 05:12:10;;;;;;;;;;;;;;;20.82;63.41;95855.27;609042;233;63318;-67
2023/10/27 05:14:37;;;;;;;;;;;;;;;20.81;62.47;95853.66;609015;233;68577;-69
2023/10/27 05:17:05;;;;;;;;;;;;;;;20.83;63.21;95848.03;609015;233;68745;-69
2023/10/27 05:19:33;;;;;;;;;;;;;;;20.82;62.79;95846.47;609029;233;64387;-69
2023/10/27 05:22:05;;;;;;;;;;;;;;;20.82;63.07;95841.13;609104;233;67178;-67
2023/10/27 05:24:30;;;;;;;;;;;;;;;20.81;63.06;95848.31;608947;232;66472;-69
2023/10/27 05:26:58;;;;;;;;;;;;;;;20.81;63.22;95844.86;609032;233;62680;-69
2023/10/27 05:29:26;;;;;;;;;;;;;;;20.81;63.10;95845.65;609051;233;67225;-69
2023/10/27 05:31:54;;;;;;;;;;;;;;;20.82;62.93;95849.13;609017;233;66179;-69
2023/10/27 05:34:21;;;;;;;;;;;;;;;20.81;63.08;95842.20;609098;233;62703;-70
2023/10/27 05:36:49;;;;;;;;;;;;;;;20.81;63.63;95848.31;609049;233;68629;-69
2023/10/27 05:39:16;;;;;;;;;;;;;;;20.81;63.01;95842.20;608996;233;66545;-69
2023/10/27 05:41:49;;;;;;;;;;;;;;;20.81;63.13;95842.20;609065;233;64749;-69
2023/10/27 05:44:17;;;;;;;;;;;;;;;20.81;62.78;95842.20;609047;233;66164;-69
2023/10/27 05:46:44;;;;;;;;;;;;;;;20.80;63.49;95836.06;609088;233;68527;-69
2023/10/27 05:49:12;;;;;;;;;;;;;;;20.81;64.02;95828.84;609063;233;64737;-69
2023/10/27 05:51:40;;;;;;;;;;;;;;;20.79;63.90;95831.83;609049;233;68516;-69
2023/10/27 05:54:07;;;;;;;;;;;;;;;20.80;63.89;95830.73;609001;233;68529;-69
2023/10/27 05:56:35;;;;;;;;;;;;;;;20.80;63.88;95828.06;609038;233;64727;-69
2023/10/27 05:59:05;;;;;;;;;;;;;;;20.80;63.81;95832.61;608993;233;66329;-69
2023/10/27 06:01:33;;;;;;;;;;;;;;;20.80;63.83;95825.39;608561;233;65584;-69
2023/10/27 06:04:00;;;;;;;;;;;;;;;20.80;63.37;95833.40;608983;233;64603;-69
2023/10/27 06:06:28;;;;;;;;;;;;;;;20.79;63.47;95828.38;609030;233;68878;-67
2023/10/27 06:08:56;;;;;;;;;;;;;;;20.80;63.46;95840.63;608400;233;68393;-71
2023/10/27 06:11:23;;;;;;;;;;;;;;;20.79;61.39;95839.84;608928;233;64670;-71
2023/10/27 06:13:51;;;;;;;;;;;;;;;20.80;63.05;95843.30;609096;233;66382;-72
2023/10/27 06:16:18;;;;;;;;;;;;;;;20.78;63.30;95837.45;608737;233;66360;-68
2023/10/27 06:18:46;;;;;;;;;;;;;;;20.79;64.92;95834.50;608990;233;62142;-67
2023/10/27 06:21:13;;;;;;;;;;;;;;;20.79;64.71;95833.71;608971;230;68658;-67
2023/10/27 06:23:41;;;;;;;;;;;;;;;20.77;64.03;95834.00;608959;233;68605;-66
2023/10/27 06:26:08;;;;;;;;;;;;;;;20.76;63.48;95827.09;608906;233;62674;-67
2023/10/27 06:28:36;;;;;;;;;;;;;;;20.75;63.01;95825.48;607200;232;66407;-68
2023/10/27 06:31:04;;;;;;;;;;;;;;;20.76;64.30;95828.94;607329;233;68862;-67
2023/10/27 06:33:32;;;;;;;;;;;;;;;20.76;63.93;95832.42;607389;233;64782;-68
2023/10/27 06:36:00;;;;;;;;;;;;;;;20.76;63.30;95818.27;607448;233;68858;-67
2023/10/27 06:38:29;;;;;;;;;;;;;;;20.76;63.92;95820.93;607338;233;68464;-67
2023/10/27 06:40:57;;;;;;;;;;;;;;;20.76;64.08;95821.75;607443;233;64823;-68
2023/10/27 06:43:24;;;;;;;;;;;;;;;20.76;63.67;95829.76;607480;233;68987;-67
2023/10/27 06:45:52;;;;;;;;;;;;;;;20.76;63.83;95821.75;607320;233;66164;-68
2023/10/27 06:48:19;;;;;;;;;;;;;;;20.75;63.41;95824.70;608166;229;62399;-68
2023/10/27 06:50:47;;;;;;;;;;;;;;;20.77;63.56;95827.88;609013;233;66639;-68
2023/10/27 06:53:15;;;;;;;;;;;;;;;20.76;63.06;95823.60;608545;233;68871;-67
2023/10/27 06:55:43;;;;;;;;;;;;;;;20.76;63.48;95828.94;606541;232;64555;-68
2023/10/27 06:58:11;;;;;;;;;;;;;;;20.76;63.56;95823.60;602288;229;66487;-68
2023/10/27 07:00:38;;;;;;;;;;;;;;;20.77;63.92;95811.85;606073;229;66476;-67
2023/10/27 07:03:06;;;;;;;;;;;;;;;20.76;64.08;95813.73;608807;232;65024;-68
2023/10/27 07:05:33;;;;;;;;;;;;;;;20.76;63.42;95811.06;607323;229;69674;-67
2023/10/27 07:08:01;;;;;;;;;;;;;;;20.76;63.69;95804.91;609657;229;66471;-70
2023/10/27 07:10:28;;;;;;;;;;;;;;;20.76;63.37;95791.56;609213;232;62775;-71
2023/10/27 07:12:56;;;;;;;;;;;;;;;20.76;62.70;95775.55;610531;232;68630;-69
2023/10/27 07:15:23;;;;;;;;;;;;;;;20.76;62.86;95775.55;605901;229;68500;-68
2023/10/27 07:17:51;;;;;;;;;;;;;;;20.76;62.58;95779.03;606019;229;64848;-68
2023/10/27 07:20:19;;;;;;;;;;;;;;;20.77;56.30;95777.14;605366;229;69217;-68
2023/10/27 07:22:46;;;;;;;;;;;;;;;20.81;62.22;95768.22;607260;229;68620;-68
2023/10/27 07:25:14;;;;;;;;;;;;;;;20.82;63.35;95764.48;605941;229;64555;-68
2023/10/27 07:27:43;;;;;;;;;;;;;;;20.83;63.44;95781.28;608001;229;66476;-69
2023/10/27 07:30:11;;;;;;;;;;;;;;;20.83;63.16;95775.94;605984;229;68616;-69
2023/10/27 07:32:38;;;;;;;;;;;;;;;20.83;63.58;95759.92;606760;229;64755;-67
2023/10/27 07:35:06;;;;;;;;;;;;;;;20.84;63.30;95756.96;609779;229;66337;-67
2023/10/27 07:37:34;;;;;;;;;;;;;;;20.84;63.52;95756.96;604742;229;68795;-68
2023/10/27 07:40:01;;;;;;;;;;;;;;;20.85;63.50;95763.09;606554;229;63505;-68
2023/10/27 07:42:31;;;;;;;;;;;;;;;20.86;63.29;95758.53;609340;229;66237;-68
2023/10/27 07:44:59;;;;;;;;;;;;;;;20.85;63.29;95752.41;606955;232;68700;-68
2023/10/27 07:47:26;;;;;;;;;;;;;;;20.86;62.78;95763.87;609407;229;64544;-68
2023/10/27 07:49:54;;;;;;;;;;;;;;;20.87;62.31;95765.44;608458;229;66309;-68
2023/10/27 07:52:22;;;;;;;;;;;;;;;20.87;63.20;95750.23;607242;229;66348;-68
2023/10/27 07:54:49;;;;;;;;;;;;;;;20.89;62.36;95747.24;606339;229;62404;-67
2023/10/27 07:57:17;;;;;;;;;;;;;;;20.89;62.14;95757.92;606737;229;68842;-68
2023/10/27 07:59:44;;;;;;;;;;;;;;;20.88;62.24;95757.14;607690;229;68299;-67
2023/10/27 08:02:12;;;;;;;;;;;;;;;20.89;62.04;95760.59;604973;229;62354;-68
2023/10/27 08:04:40;;;;;;;;;;;;;;;20.89;62.14;95764.05;605141;229;67414;-68
2023/10/27 08:07:07;;;;;;;;;;;;;;;20.91;62.69;95772.56;604762;229;69000;-67
2023/10/27 08:09:35;;;;;;;;;;;;;;;20.90;62.99;95770.99;605700;229;62433;-69
2023/10/27 08:12:04;;;;;;;;;;;;;;;20.90;62.65;95765.66;604635;229;68944;-67
2023/10/27 08:14:36;;;;;;;;;;;;;;;20.90;62.46;95776.33;604112;229;65216;-68
2023/10/27 08:17:03;;;;;;;;;;;;;;;20.90;62.36;95770.99;605457;233;62749;-68
2023/10/27 08:19:31;;;;;;;;;;;;;;;20.89;62.09;95766.72;603785;233;68929;-68
2023/10/27 08:21:59;;;;;;;;;;;;;;;20.92;62.31;95773.34;602288;235;68767;-69
2023/10/27 08:24:26;;;;;;;;;;;;;;;20.91;62.39;95777.91;602190;235;62382;-68
2023/10/27 08:26:54;;;;;;;;;;;;;;;20.92;62.92;95766.13;602240;235;66139;-68
2023/10/27 08:29:22;;;;;;;;;;;;;;;20.92;62.86;95757.33;602267;235;68899;-68
2023/10/27 08:31:50;;;;;;;;;;;;;;;20.92;62.85;95758.11;602234;235;63542;-68
2023/10/27 08:34:17;;;;;;;;;;;;;;;20.92;62.12;95750.09;603577;229;69164;-68
2023/10/27 08:36:45;;;;;;;;;;;;;;;20.92;62.01;95758.11;602984;233;68490;-68
2023/10/27 08:39:13;;;;;;;;;;;;;;;20.94;62.38;95755.15;602204;235;62402;-68
2023/10/27 08:41:41;;;;;;;;;;;;;;;20.93;62.18;95753.58;607807;233;68946;-68
2023/10/27 08:44:09;;;;;;;;;;;;;;;20.94;62.34;95752.48;607438;229;68975;-68
2023/10/27 08:46:37;;;;;;;;;;;;;;;20.93;62.29;95749.02;604702;233;62506;-68
2023/10/27 08:49:05;;;;;;;;;;;;;;;20.94;62.31;95753.27;602290;235;68895;-68
2023/10/27 08:51:33;;;;;;;;;;;;;;;20.95;62.38;95762.87;602253;235;68627;-68
2023/10/27 08:54:00;;;;;;;;;;;;;;;20.95;62.52;95757.53;606585;229;64914;-68
2023/10/27 08:56:28;;;;;;;;;;;;;;;20.95;62.31;95746.84;602878;233;66333;-68
2023/10/27 08:58:56;;;;;;;;;;;;;;;20.95;62.38;95752.19;608782;233;69612;-68
2023/10/27 09:01:25;;;;;;;;;;;;;;;20.96;62.39;95750.30;605440;233;62407;-68
2023/10/27 09:04:12;;;;;;;;;;;;;;;20.96;62.32;95752.98;604168;235;68815;-69
2023/10/27 09:06:41;;;;;;;;;;;;;;;20.96;62.50;95748.42;603930;232;66245;-69
2023/10/27 09:09:11;;;;;;;;;;;;;;;20.96;62.31;95743.08;608094;229;64784;-69
2023/10/27 09:11:41;;;;;;;;;;;;;;;20.96;62.40;95739.63;605588;232;67490;-66
2023/10/27 09:14:19;;;;;;;;;;;;;;;20.95;62.15;95741.51;610902;232;68473;-68
2023/10/27 09:16:47;;;;;;;;;;;;;;;20.97;62.15;95743.86;608724;229;64699;-68
2023/10/27 09:19:19;;;;;;;;;;;;;;;20.97;62.16;95747.31;606941;229;66396;-68
2023/10/27 09:21:47;;;;;;;;;;;;;;;20.97;61.93;95752.66;609862;232;69932;-68
2023/10/27 09:24:21;;;;;;;;;;;;;;;20.98;62.89;95751.59;610860;232;64925;-68
2023/10/27 09:26:49;;;;;;;;;;;;;;;20.97;62.49;95744.65;604138;232;68563;-69
2023/10/27 09:29:17;;;;;;;;;;;;;;;20.97;61.79;95743.86;604879;229;66322;-68
2023/10/27 09:31:44;;;;;;;;;;;;;;;20.97;62.05;95736.63;608527;232;65001;-68
2023/10/27 09:34:23;;;;;;;;;;;;;;;21.00;62.28;95736.03;608647;232;69514;-68
2023/10/27 09:36:55;;;;;;;;;;;;;;;20.99;62.18;95731.79;605396;232;66434;-68
2023/10/27 09:39:25;;;;;;;;;;;;;;;20.99;61.90;95713.09;606026;229;64616;-68
2023/10/27 09:42:00;;;;;;;;;;;;;;;21.00;62.02;95709.31;607658;229;68332;-69
2023/10/27 09:44:31;;;;;;;;;;;;;;;20.99;62.47;95690.94;605891;232;69323;-67
2023/10/27 09:47:01;;;;;;;;;;;;;;;21.00;62.45;95698.64;606514;232;65343;-68
2023/10/27 09:49:33;;;;;;;;;;;;;;;20.99;62.20;95686.39;602625;233;68802;-68
2023/10/27 09:52:01;;;;;;;;;;;;;;;21.00;61.98;95684.50;602375;235;68719;-68
2023/10/27 09:54:31;;;;;;;;;;;;;;;21.00;62.25;95674.59;602655;235;62419;-69
2023/10/27 09:57:00;;;;;;;;;;;;;;;21.00;62.15;95666.59;602543;235;68085;-68
2023/10/27 09:59:30;;;;;;;;;;;;;;;21.00;62.01;95669.25;602691;235;68542;-68
2023/10/27 10:02:05;;;;;;;;;;;;;;;21.01;61.81;95670.86;602112;235;64706;-68
2023/10/27 10:04:48;;;;;;;;;;;;;;;21.01;61.87;95670.07;601644;235;69164;-68
2023/10/27 10:07:17;;;;;;;;;;;;;;;21.01;61.82;95667.40;602883;235;68781;-67
2023/10/27 10:09:44;;;;;;;;;;;;;;;21.02;61.88;95655.61;602596;235;65492;-68
2023/10/27 10:12:12;;;;;;;;;;;;;;;21.01;61.94;95654.83;603084;235;68872;-67
2023/10/27 10:14:43;;;;;;;;;;;;;;;21.02;62.00;95660.95;603171;235;68557;-67
2023/10/27 10:17:10;;;;;;;;;;;;;;;21.01;62.16;95654.83;603109;235;64814;-68
2023/10/27 10:19:50;;;;;;;;;;;;;;;21.02;61.97;95656.39;603133;235;68950;-68
2023/10/27 10:22:35;;;;;;;;;;;;;;;21.02;62.16;95667.08;603120;235;68709;-68
2023/10/27 10:25:17;;;;;;;;;;;;;;;21.02;61.88;95660.95;603100;235;63528;-67
2023/10/27 10:27:55;;;;;;;;;;;;;;;21.02;62.02;95660.95;603192;235;66446;-68
2023/10/27 10:30:23;;;;;;;;;;;;;;;21.02;61.98;95667.08;598836;235;68363;-68
2023/10/27 10:32:53;;;;;;;;;;;;;;;21.03;61.86;95663.34;603055;235;64945;-68
2023/10/27 10:35:27;;;;;;;;;;;;;;;21.03;62.05;95665.19;596044;233;68780;-67
2023/10/27 10:37:56;;;;;;;;;;;;;;;21.03;61.92;95670.53;593842;238;68935;-67
2023/10/27 10:40:24;;;;;;;;;;;;;;;21.02;61.69;95677.77;593795;238;63711;-68
2023/10/27 10:43:09;;;;;;;;;;;;;;;21.03;61.61;95682.03;594184;238;68716;-68
2023/10/27 10:45:48;;;;;;;;;;;;;;;21.05;61.78;95681.71;594152;238;66438;-68
2023/10/27 10:48:16;;;;;;;;;;;;;;;21.01;61.66;95670.07;594038;238;62725;-68
2023/10/27 10:50:44;;;;;;;;;;;;;;;20.98;61.87;95671.47;594116;237;68560;-68
2023/10/27 10:53:15;;;;;;;;;;;;;;;20.97;62.23;95666.41;594056;238;69709;-67
2023/10/27 10:55:45;;;;;;;;;;;;;;;20.96;62.75;95673.64;594072;238;65553;-68
2023/10/27 10:58:23;;;;;;;;;;;;;;;20.96;62.66;95672.86;593945;238;66048;-67
2023/10/27 11:00:51;;;;;;;;;;;;;;;20.93;62.26;95666.23;595453;235;66470;-68
2023/10/27 11:03:21;;;;;;;;;;;;;;;20.92;62.02;95664.64;604046;235;64906;-68
2023/10/27 11:05:50;;;;;;;;;;;;;;;20.92;61.55;95659.30;604073;235;69064;-67
2023/10/27 11:08:27;;;;;;;;;;;;;;;20.92;61.95;95677.21;603913;235;68816;-67
2023/10/27 11:11:01;;;;;;;;;;;;;;;20.93;62.66;95676.92;604086;235;64852;-68
2023/10/27 11:13:30;;;;;;;;;;;;;;;20.92;62.37;95661.97;604034;235;68681;-67
2023/10/27 11:16:00;;;;;;;;;;;;;;;20.91;61.74;95660.41;604023;235;68828;-67
2023/10/27 11:18:29;;;;;;;;;;;;;;;20.91;61.48;95656.95;604051;235;62855;-68
2023/10/27 11:20:56;;;;;;;;;;;;;;;20.91;62.39;95660.41;604137;235;68613;-68
2023/10/27 11:23:26;;;;;;;;;;;;;;;20.91;62.38;95659.62;604042;235;68689;-68
2023/10/27 11:25:55;;;;;;;;;;;;;;;20.91;61.69;95662.29;604047;235;62693;-68
2023/10/27 11:28:26;;;;;;;;;;;;;;;20.90;61.73;95658.83;603765;234;69477;-69
2023/10/27 11:31:12;;;;;;;;;;;;;;;20.90;61.80;95652.68;604037;235;66474;-69
2023/10/27 11:33:59;;;;;;;;;;;;;;;20.90;62.15;95647.34;604005;234;63364;-68
2023/10/27 11:36:38;;;;;;;;;;;;;;;20.89;62.15;95641.22;603963;235;68657;-67
2023/10/27 11:39:19;;;;;;;;;;;;;;;20.89;61.97;95649.23;604061;235;66472;-69
2023/10/27 11:41:54;;;;;;;;;;;;;;;20.89;62.18;95651.89;604102;235;64749;-68
2023/10/27 11:44:22;;;;;;;;;;;;;;;20.89;62.39;95654.56;603974;235;68644;-69
2023/10/27 11:46:51;;;;;;;;;;;;;;;20.88;61.67;95642.32;604113;235;68335;-68
2023/10/27 11:49:18;;;;;;;;;;;;;;;20.87;61.86;95643.42;604094;235;63460;-68
2023/10/27 11:51:47;;;;;;;;;;;;;;;20.89;62.21;95646.55;604010;235;68653;-68
2023/10/27 11:54:20;;;;;;;;;;;;;;;20.89;61.95;95635.09;599274;235;69882;-69
2023/10/27 11:56:44;;;;;;;;;;;;;;;20.90;56.08;95623.30;603857;234;64430;-68
2023/10/27 11:59:12;;;;;;;;;;;;;;;20.92;60.49;95616.57;604013;235;68831;-68
2023/10/27 12:01:40;;;;;;;;;;;;;;;20.91;62.47;95622.23;603127;235;66518;-68
2023/10/27 12:04:10;;;;;;;;;;;;;;;20.90;62.30;95632.13;602166;235;62825;-68
2023/10/27 12:06:39;;;;;;;;;;;;;;;20.89;62.65;95617.18;602139;235;69624;-68
2023/10/27 12:09:07;;;;;;;;;;;;;;;20.90;63.25;95617.97;601863;235;68568;-68
2023/10/27 12:11:35;;;;;;;;;;;;;;;20.88;62.53;95607.60;602159;235;62476;-68
2023/10/27 12:14:03;;;;;;;;;;;;;;;20.88;61.95;95582.78;602182;235;68521;-69
2023/10/27 12:16:31;;;;;;;;;;;;;;;20.87;62.21;95582.00;602166;235;66383;-68
2023/10/27 12:19:00;;;;;;;;;;;;;;;20.88;61.69;95575.56;602136;235;64859;-68
2023/10/27 12:21:28;;;;;;;;;;;;;;;20.89;61.45;95571.00;602207;235;69068;-67
2023/10/27 12:23:56;;;;;;;;;;;;;;;20.88;60.85;95559.54;602184;235;66377;-66
2023/10/27 12:26:24;;;;;;;;;;;;;;;20.89;62.20;95544.30;602128;235;64890;-68
2023/10/27 12:28:52;;;;;;;;;;;;;;;21.00;55.73;95537.61;602237;235;66534;-69
2023/10/27 12:31:19;;;;;;;;;;;;;;;21.01;56.27;95539.98;602184;235;68666;-69
2023/10/27 12:33:47;;;;;;;;;;;;;;;21.04;59.64;95552.72;602132;235;64786;-68
2023/10/27 12:36:14;;;;;;;;;;;;;;;21.06;59.73;95553.21;602223;235;68371;-69
2023/10/27 12:38:42;;;;;;;;;;;;;;;21.08;59.59;95562.79;602208;235;69492;-68
2023/10/27 12:41:10;;;;;;;;;;;;;;;21.10;60.00;95560.61;602428;232;65484;-68
2023/10/27 12:43:40;;;;;;;;;;;;;;;21.11;59.56;95562.95;604824;233;68812;-68
2023/10/27 12:46:07;;;;;;;;;;;;;;;21.13;59.40;95562.66;605195;233;68621;-68
2023/10/27 12:48:35;;;;;;;;;;;;;;;21.13;59.41;95555.44;607421;233;62488;-67
2023/10/27 12:51:08;;;;;;;;;;;;;;;21.14;59.51;95561.55;608004;233;68937;-68
2023/10/27 12:53:32;;;;;;;;;;;;;;;21.15;59.52;95561.27;607713;233;68853;-67
2023/10/27 12:55:59;;;;;;;;;;;;;;;21.17;59.90;95556.41;607937;233;64553;-68